createdAt,value
2022-12-03T00:00:36.880Z,8.64
2022-12-03T00:03:21.380Z,8.57
2022-12-03T00:05:50.037Z,8.66
2022-12-03T00:08:18.956Z,8.75
2022-12-03T00:10:49.074Z,8.78
2022-12-03T00:13:17.783Z,8.76
2022-12-03T00:15:46.207Z,8.62
2022-12-03T00:18:15.175Z,8.65
2022-12-03T00:20:43.648Z,8.59
2022-12-03T00:23:12.449Z,8.54
2022-12-03T00:25:40.912Z,8.49
2022-12-03T00:28:11.065Z,8.57
2022-12-03T00:30:39.704Z,8.66
2022-12-03T00:33:08.874Z,8.68
2022-12-03T00:35:37.389Z,8.79
2022-12-03T00:38:06.159Z,8.91
2022-12-03T00:40:35.056Z,8.78
2022-12-03T00:43:03.990Z,8.81
2022-12-03T00:45:33.767Z,8.70
2022-12-03T00:48:02.632Z,8.70
2022-12-03T00:50:31.155Z,8.67
2022-12-03T00:52:59.906Z,8.71
2022-12-03T00:55:28.420Z,8.69
2022-12-03T00:57:57.145Z,8.64
2022-12-03T01:00:25.718Z,8.45
2022-12-03T01:02:55.859Z,8.30
2022-12-03T01:05:24.271Z,8.33
2022-12-03T01:07:52.994Z,8.32
2022-12-03T01:10:22.570Z,8.17
2022-12-03T01:12:51.346Z,8.25
2022-12-03T01:15:19.985Z,8.02
2022-12-03T01:17:48.650Z,8.23
2022-12-03T01:20:18.521Z,8.14
2022-12-03T01:22:47.295Z,8.36
2022-12-03T01:25:16.256Z,8.12
2022-12-03T01:27:45.128Z,7.77
2022-12-03T01:30:14.645Z,7.97
2022-12-03T01:32:42.398Z,7.94
2022-12-03T01:35:10.864Z,7.99
2022-12-03T01:37:40.987Z,8.03
2022-12-03T01:40:13.347Z,7.92
2022-12-03T01:42:43.413Z,8.10
2022-12-03T01:45:15.172Z,8.02
2022-12-03T01:47:43.943Z,8.24
2022-12-03T01:50:19.434Z,8.22
2022-12-03T01:52:49.821Z,8.33
2022-12-03T01:55:22.213Z,8.43
2022-12-03T01:57:54.182Z,8.42
2022-12-03T02:00:24.713Z,8.49
2022-12-03T02:02:55.838Z,8.54
2022-12-03T02:05:27.318Z,8.54
2022-12-03T02:07:58.583Z,8.49
2022-12-03T02:10:29.689Z,8.48
2022-12-03T02:13:02.227Z,8.48
2022-12-03T02:15:30.752Z,8.26
2022-12-03T02:17:59.748Z,8.13
2022-12-03T02:20:28.848Z,8.26
2022-12-03T02:23:06.616Z,8.28
2022-12-03T02:25:37.973Z,8.28
2022-12-03T02:28:09.453Z,8.28
2022-12-03T02:30:38.395Z,8.37
2022-12-03T02:33:07.254Z,8.29
2022-12-03T02:35:37.252Z,8.20
2022-12-03T02:38:18.637Z,8.13
2022-12-03T02:40:51.173Z,8.23
2022-12-03T02:43:20.831Z,8.23
2022-12-03T02:45:52.935Z,8.31
2022-12-03T02:48:26.190Z,8.17
2022-12-03T02:50:56.907Z,8.34
2022-12-03T02:53:30.949Z,8.29
2022-12-03T02:56:02.866Z,8.27
2022-12-03T02:58:34.075Z,8.19
2022-12-03T03:01:05.087Z,8.29
2022-12-03T03:03:34.622Z,8.28
2022-12-03T03:06:04.651Z,8.38
2022-12-03T03:08:33.435Z,7.97
2022-12-03T03:11:03.715Z,8.06
2022-12-03T03:13:34.773Z,8.11
2022-12-03T03:16:03.899Z,7.88
2022-12-03T03:18:33.183Z,7.93
2022-12-03T03:21:01.991Z,7.79
2022-12-03T03:23:30.960Z,7.86
2022-12-03T03:26:02.888Z,7.65
2022-12-03T03:28:35.745Z,7.89
2022-12-03T03:31:06.381Z,7.64
2022-12-03T03:33:35.667Z,7.85
2022-12-03T03:36:04.121Z,8.06
2022-12-03T03:38:33.724Z,7.97
2022-12-03T03:41:04.349Z,7.99
2022-12-03T03:43:35.857Z,8.03
2022-12-03T03:46:05.967Z,8.06
2022-12-03T03:48:35.812Z,8.15
2022-12-03T03:51:08.963Z,8.10
2022-12-03T03:53:39.769Z,8.09
2022-12-03T03:56:09.838Z,8.26
2022-12-03T03:58:40.314Z,8.14
2022-12-03T04:01:09.842Z,8.17
2022-12-03T04:03:38.590Z,8.10
2022-12-03T04:06:07.574Z,8.22
2022-12-03T04:08:36.492Z,8.21
2022-12-03T04:11:22.655Z,8.34
2022-12-03T04:13:53.161Z,8.38
2022-12-03T04:16:21.592Z,8.15
2022-12-03T04:18:50.952Z,8.40
2022-12-03T04:21:38.318Z,8.32
2022-12-03T04:24:09.062Z,8.26
2022-12-03T04:26:55.367Z,8.42
2022-12-03T04:29:25.527Z,8.29
2022-12-03T04:32:12.070Z,8.32
2022-12-03T04:34:58.117Z,8.46
2022-12-03T04:37:26.653Z,8.26
2022-12-03T04:39:55.496Z,8.24
2022-12-03T04:42:24.279Z,8.27
2022-12-03T04:44:54.570Z,8.32
2022-12-03T04:47:23.447Z,8.27
2022-12-03T04:49:53.139Z,7.93
2022-12-03T04:52:22.418Z,7.88
2022-12-03T04:54:51.204Z,7.58
2022-12-03T04:57:19.776Z,7.50
2022-12-03T04:59:48.481Z,7.52
2022-12-03T05:02:18.660Z,7.76
2022-12-03T05:04:47.661Z,7.77
2022-12-03T05:07:16.079Z,7.15
2022-12-03T05:09:44.909Z,6.81
2022-12-03T05:12:13.331Z,7.25
2022-12-03T05:14:42.056Z,7.52
2022-12-03T05:17:10.528Z,7.34
2022-12-03T05:19:54.518Z,7.63
2022-12-03T05:22:22.919Z,7.61
2022-12-03T05:24:52.119Z,7.66
2022-12-03T05:27:23.860Z,7.67
2022-12-03T05:29:53.185Z,7.71
2022-12-03T05:32:22.096Z,7.17
2022-12-03T05:34:52.802Z,7.34
2022-12-03T05:37:21.547Z,7.54
2022-12-03T05:39:50.254Z,7.45
2022-12-03T05:42:35.913Z,7.19
2022-12-03T05:45:05.611Z,7.39
2022-12-03T05:47:34.419Z,7.24
2022-12-03T05:50:04.876Z,7.60
2022-12-03T05:52:33.472Z,7.70
2022-12-03T05:55:02.129Z,7.54
2022-12-03T05:57:30.580Z,6.85
2022-12-03T05:59:59.400Z,6.77
2022-12-03T06:02:27.922Z,6.50
2022-12-03T06:04:56.948Z,6.10
2022-12-03T06:07:26.892Z,6.04
2022-12-03T06:09:55.836Z,6.64
2022-12-03T06:12:24.244Z,6.59
2022-12-03T06:14:55.131Z,7.00
2022-12-03T06:17:23.787Z,6.99
2022-12-03T06:19:52.502Z,6.98
2022-12-03T06:22:21.399Z,6.94
2022-12-03T06:24:51.763Z,7.27
2022-12-03T06:27:20.428Z,7.49
2022-12-03T06:29:49.142Z,7.66
2022-12-03T06:32:17.640Z,7.66
2022-12-03T06:34:46.390Z,7.89
2022-12-03T06:37:14.783Z,7.86
2022-12-03T06:39:44.160Z,7.78
2022-12-03T06:42:14.010Z,7.94
2022-12-03T06:44:42.623Z,8.15
2022-12-03T06:47:11.088Z,7.86
2022-12-03T06:49:39.848Z,8.28
2022-12-03T06:52:08.357Z,7.98
2022-12-03T06:54:37.045Z,7.88
2022-12-03T06:57:05.504Z,8.27
2022-12-03T06:59:37.621Z,8.12
2022-12-03T07:02:06.268Z,8.07
2022-12-03T07:04:35.098Z,8.11
2022-12-03T07:07:03.549Z,7.99
2022-12-03T07:09:32.421Z,8.32
2022-12-03T07:12:00.792Z,8.56
2022-12-03T07:14:29.588Z,8.87
2022-12-03T07:16:59.322Z,8.94
2022-12-03T07:19:32.516Z,9.08
2022-12-03T07:22:01.914Z,8.83
2022-12-03T07:24:30.583Z,8.84
2022-12-03T07:26:58.957Z,8.64
2022-12-03T07:29:27.689Z,7.94
2022-12-03T07:31:56.167Z,8.37
2022-12-03T07:34:26.342Z,8.81
2022-12-03T07:36:54.878Z,8.93
2022-12-03T07:39:23.738Z,9.28
2022-12-03T07:41:52.223Z,9.32
2022-12-03T07:44:21.206Z,9.40
2022-12-03T07:46:49.693Z,9.70
2022-12-03T07:49:18.443Z,9.89
2022-12-03T07:51:54.083Z,9.90
2022-12-03T07:54:23.012Z,9.91
2022-12-03T07:56:54.348Z,9.08
2022-12-03T07:59:25.433Z,9.13
2022-12-03T08:01:54.165Z,8.87
2022-12-03T08:04:22.888Z,9.15
2022-12-03T08:06:52.789Z,9.26
2022-12-03T08:09:21.521Z,9.56
2022-12-03T08:11:50.466Z,9.77
2022-12-03T08:14:21.248Z,10.07
2022-12-03T08:16:49.974Z,10.11
2022-12-03T08:19:19.445Z,10.20
2022-12-03T08:21:47.808Z,10.10
2022-12-03T08:24:20.209Z,9.93
2022-12-03T08:26:50.317Z,10.04
2022-12-03T08:29:21.138Z,10.40
2022-12-03T08:31:52.233Z,10.47
2022-12-03T08:34:22.913Z,10.26
2022-12-03T08:36:53.545Z,10.62
2022-12-03T08:39:30.630Z,10.75
2022-12-03T08:42:27.602Z,11.00
2022-12-03T08:44:56.727Z,11.22
2022-12-03T08:47:26.286Z,11.25
2022-12-03T08:49:58.248Z,11.28
2022-12-03T08:52:33.400Z,11.66
2022-12-03T08:55:32.469Z,11.89
2022-12-03T08:58:01.507Z,11.75
2022-12-03T09:00:30.356Z,12.01
2022-12-03T09:03:02.219Z,11.77
2022-12-03T09:05:33.463Z,11.89
2022-12-03T09:08:02.083Z,12.08
2022-12-03T09:10:32.310Z,12.04
2022-12-03T09:13:00.744Z,12.17
2022-12-03T09:15:29.947Z,12.01
2022-12-03T09:17:58.415Z,12.02
2022-12-03T09:20:27.299Z,11.93
2022-12-03T09:22:55.797Z,11.97
2022-12-03T09:25:24.793Z,11.78
2022-12-03T09:27:54.602Z,11.72
2022-12-03T09:30:23.611Z,11.95
2022-12-03T09:32:52.154Z,11.97
2022-12-03T09:35:20.969Z,12.00
2022-12-03T09:37:49.407Z,12.09
2022-12-03T09:40:18.443Z,11.93
2022-12-03T09:42:47.469Z,11.87
2022-12-03T09:45:18.105Z,12.04
2022-12-03T09:47:48.898Z,11.90
2022-12-03T09:50:21.265Z,12.07
2022-12-03T09:52:51.076Z,12.15
2022-12-03T09:55:24.096Z,12.32
2022-12-03T09:57:53.571Z,12.24
2022-12-03T10:00:26.578Z,12.26
2022-12-03T10:02:58.701Z,12.19
2022-12-03T10:05:27.759Z,12.12
2022-12-03T10:08:04.469Z,12.21
2022-12-03T10:10:35.363Z,12.26
2022-12-03T10:13:04.835Z,12.09
2022-12-03T10:15:35.094Z,12.12
2022-12-03T10:18:17.143Z,12.15
2022-12-03T10:20:46.430Z,12.06
2022-12-03T10:23:21.694Z,11.85
2022-12-03T10:25:55.857Z,12.04
2022-12-03T10:28:34.029Z,12.14
2022-12-03T10:31:06.744Z,12.35
2022-12-03T10:33:37.736Z,12.26
2022-12-03T10:36:19.290Z,12.31
2022-12-03T10:38:47.933Z,12.24
2022-12-03T10:41:23.370Z,12.61
2022-12-03T10:43:51.867Z,12.79
2022-12-03T10:46:24.129Z,12.93
2022-12-03T10:49:11.184Z,13.17
2022-12-03T10:51:40.696Z,13.18
2022-12-03T10:54:18.963Z,13.13
2022-12-03T10:56:49.135Z,13.13
2022-12-03T10:59:21.042Z,13.15
2022-12-03T11:01:52.029Z,13.11
2022-12-03T11:04:23.820Z,12.98
2022-12-03T11:06:52.940Z,13.28
2022-12-03T11:09:26.264Z,13.27
2022-12-03T11:11:55.676Z,13.17
2022-12-03T11:15:06.352Z,13.26
2022-12-03T11:17:49.779Z,13.43
2022-12-03T11:20:55.491Z,13.30
2022-12-03T11:23:57.133Z,13.35
2022-12-03T11:27:08.528Z,13.45
2022-12-03T11:29:59.784Z,13.43
2022-12-03T11:33:07.644Z,13.60
2022-12-03T11:35:54.081Z,13.38
2022-12-03T11:38:53.345Z,13.45
2022-12-03T11:41:29.159Z,13.22
2022-12-03T11:44:31.661Z,13.47
2022-12-03T11:47:08.671Z,13.29
2022-12-03T11:49:40.261Z,13.47
2022-12-03T11:52:40.977Z,13.77
2022-12-03T11:55:18.463Z,13.51
2022-12-03T11:57:47.409Z,13.37
2022-12-03T12:00:22.534Z,13.39
2022-12-03T12:02:54.991Z,13.54
2022-12-03T12:05:32.551Z,13.62
2022-12-03T12:08:03.997Z,13.53
2022-12-03T12:10:45.495Z,13.55
2022-12-03T12:13:52.870Z,13.61
2022-12-03T12:16:45.788Z,13.69
2022-12-03T12:19:35.203Z,13.87
2022-12-03T12:22:30.535Z,13.92
2022-12-03T12:25:01.632Z,13.74
2022-12-03T12:27:35.998Z,13.70
2022-12-03T12:30:08.113Z,13.68
2022-12-03T12:32:45.927Z,13.77
2022-12-03T12:35:18.056Z,13.81
2022-12-03T12:37:58.133Z,13.82
2022-12-03T12:40:31.282Z,13.93
2022-12-03T12:43:08.252Z,14.00
2022-12-03T12:45:41.490Z,13.86
2022-12-03T12:48:18.304Z,13.81
2022-12-03T12:50:49.439Z,13.90
2022-12-03T12:53:23.776Z,13.75
2022-12-03T12:55:57.726Z,13.96
2022-12-03T12:58:27.948Z,14.12
2022-12-03T13:00:59.317Z,14.14
2022-12-03T13:03:30.767Z,14.38
2022-12-03T13:05:59.934Z,14.34
2022-12-03T13:08:31.913Z,14.23
2022-12-03T13:11:03.412Z,14.26
2022-12-03T13:13:41.791Z,14.29
2022-12-03T13:16:32.081Z,14.17
2022-12-03T13:19:01.788Z,14.34
2022-12-03T13:21:38.877Z,14.15
2022-12-03T13:24:37.336Z,13.97
2022-12-03T13:27:25.740Z,13.76
2022-12-03T13:29:57.465Z,13.77
2022-12-03T13:32:30.967Z,13.85
2022-12-03T13:35:05.158Z,13.86
2022-12-03T13:37:34.568Z,13.58
2022-12-03T13:40:21.355Z,13.89
2022-12-03T13:42:52.717Z,13.89
2022-12-03T13:45:32.463Z,14.00
2022-12-03T13:48:03.932Z,13.76
2022-12-03T13:50:37.320Z,13.42
2022-12-03T13:53:21.252Z,13.51
2022-12-03T13:55:51.871Z,13.42
2022-12-03T13:58:22.101Z,13.29
2022-12-03T14:00:50.998Z,13.22
2022-12-03T14:03:19.935Z,13.16
2022-12-03T14:05:48.457Z,13.13
2022-12-03T14:08:17.629Z,12.74
2022-12-03T14:10:46.207Z,12.64
2022-12-03T14:13:15.033Z,12.84
2022-12-03T14:15:44.962Z,12.50
2022-12-03T14:18:13.686Z,12.57
2022-12-03T14:20:42.357Z,12.57
2022-12-03T14:23:10.993Z,12.63
2022-12-03T14:25:39.423Z,12.14
2022-12-03T14:28:09.672Z,12.19
2022-12-03T14:30:38.187Z,12.19
2022-12-03T14:33:08.326Z,12.17
2022-12-03T14:35:37.340Z,12.07
2022-12-03T14:38:05.699Z,11.95
2022-12-03T14:40:35.004Z,11.77
2022-12-03T14:43:03.500Z,11.73
2022-12-03T14:45:32.247Z,11.61
2022-12-03T14:48:00.764Z,11.56
2022-12-03T14:50:30.878Z,11.48
2022-12-03T14:52:59.353Z,11.35
2022-12-03T14:55:28.163Z,11.19
2022-12-03T14:57:56.674Z,11.17
2022-12-03T15:00:25.654Z,11.31
2022-12-03T15:02:54.205Z,11.24
2022-12-03T15:05:28.495Z,11.22
2022-12-03T15:07:59.053Z,11.15
2022-12-03T15:10:27.809Z,11.05
2022-12-03T15:12:56.178Z,10.86
2022-12-03T15:15:24.825Z,11.09
2022-12-03T15:17:53.236Z,11.10
2022-12-03T15:20:21.914Z,11.30
2022-12-03T15:22:50.290Z,11.06
2022-12-03T15:25:24.574Z,11.05
2022-12-03T15:27:53.029Z,10.88
2022-12-03T15:30:21.746Z,10.73
2022-12-03T15:32:50.178Z,10.70
2022-12-03T15:35:18.967Z,10.50
2022-12-03T15:37:47.395Z,10.48
2022-12-03T15:40:16.348Z,10.45
2022-12-03T15:42:46.135Z,10.42
2022-12-03T15:45:15.450Z,10.08
2022-12-03T15:47:44.466Z,10.14
2022-12-03T15:50:14.260Z,9.77
2022-12-03T15:52:42.679Z,9.80
2022-12-03T15:55:12.203Z,9.89
2022-12-03T15:57:40.897Z,9.89
2022-12-03T16:00:14.420Z,9.85
2022-12-03T16:02:50.871Z,9.68
2022-12-03T16:05:21.525Z,9.78
2022-12-03T16:07:50.052Z,9.83
2022-12-03T16:10:21.473Z,9.74
2022-12-03T16:12:52.492Z,9.73
2022-12-03T16:15:27.039Z,9.74
2022-12-03T16:17:55.979Z,9.94
2022-12-03T16:20:24.791Z,9.93
2022-12-03T16:22:53.318Z,9.73
2022-12-03T16:25:22.089Z,9.84
2022-12-03T16:27:50.717Z,9.74
2022-12-03T16:30:19.731Z,9.70
2022-12-03T16:32:49.555Z,9.79
2022-12-03T16:35:18.556Z,9.74
2022-12-03T16:37:47.049Z,9.79
2022-12-03T16:40:15.932Z,9.84
2022-12-03T16:42:44.424Z,9.82
2022-12-03T16:45:31.224Z,9.60
2022-12-03T16:48:01.998Z,9.61
2022-12-03T16:50:31.006Z,9.54
2022-12-03T16:52:59.633Z,9.48
2022-12-03T16:55:28.326Z,9.52
2022-12-03T16:57:56.770Z,9.46
2022-12-03T17:00:26.349Z,9.34
2022-12-03T17:02:54.801Z,9.22
2022-12-03T17:05:25.028Z,9.27
2022-12-03T17:07:53.590Z,8.92
2022-12-03T17:10:22.372Z,8.69
2022-12-03T17:15:40.634Z,8.68
2022-12-03T17:18:10.004Z,8.65
2022-12-03T17:20:40.216Z,8.60
2022-12-03T17:23:08.965Z,8.65
2022-12-03T17:25:37.846Z,8.51
2022-12-03T17:28:06.591Z,8.50
2022-12-03T17:30:35.385Z,8.37
2022-12-03T17:33:04.124Z,8.41
2022-12-03T17:35:32.941Z,8.61
2022-12-03T17:38:03.090Z,8.49
2022-12-03T17:40:31.954Z,8.43
2022-12-03T17:43:00.421Z,8.44
2022-12-03T17:45:29.268Z,8.39
2022-12-03T17:47:57.666Z,8.46
2022-12-03T17:50:26.867Z,8.41
2022-12-03T17:52:55.262Z,8.28
2022-12-03T17:55:35.935Z,8.13
2022-12-03T17:58:07.343Z,8.31
2022-12-03T18:00:36.071Z,8.28
2022-12-03T18:03:04.913Z,8.09
2022-12-03T18:05:33.683Z,8.02
2022-12-03T18:08:02.312Z,8.04
2022-12-03T18:10:32.841Z,7.97
2022-12-03T18:13:02.424Z,7.89
2022-12-03T18:15:31.617Z,7.88
2022-12-03T18:18:00.275Z,7.94
2022-12-03T18:20:29.485Z,7.89
2022-12-03T18:22:59.180Z,7.69
2022-12-03T18:25:29.838Z,7.79
2022-12-03T18:27:59.955Z,7.67
2022-12-03T18:30:28.859Z,7.71
2022-12-03T18:32:57.474Z,7.81
2022-12-03T18:35:26.665Z,7.83
2022-12-03T18:37:55.395Z,7.91
2022-12-03T18:40:27.235Z,7.97
2022-12-03T18:42:57.195Z,8.08
2022-12-03T18:45:27.565Z,7.79
2022-12-03T18:47:56.809Z,7.94
2022-12-03T18:50:25.804Z,7.59
2022-12-03T18:52:54.455Z,7.77
2022-12-03T18:55:23.305Z,7.71
2022-12-03T18:57:51.970Z,7.63
2022-12-03T19:00:21.390Z,7.65
2022-12-03T19:03:06.590Z,7.77
2022-12-03T19:05:36.432Z,7.79
2022-12-03T19:08:12.574Z,7.69
2022-12-03T19:10:42.277Z,7.72
2022-12-03T19:13:10.938Z,7.85
2022-12-03T19:15:40.364Z,7.85
2022-12-03T19:18:10.216Z,7.64
2022-12-03T19:20:41.676Z,7.78
2022-12-03T19:23:11.454Z,7.58
2022-12-03T19:25:40.363Z,7.78
2022-12-03T19:28:09.096Z,7.73
2022-12-03T19:30:37.982Z,7.65
2022-12-03T19:33:06.520Z,7.48
2022-12-03T19:35:43.068Z,7.41
2022-12-03T19:38:11.767Z,7.51
2022-12-03T19:40:40.910Z,7.67
2022-12-03T19:43:09.421Z,7.69
2022-12-03T19:45:38.307Z,7.70
2022-12-03T19:48:07.058Z,7.75
2022-12-03T19:50:35.925Z,7.76
2022-12-03T19:53:05.916Z,7.57
2022-12-03T19:55:36.396Z,7.71
2022-12-03T19:58:04.991Z,7.34
2022-12-03T20:00:35.780Z,7.39
2022-12-03T20:03:04.827Z,7.47
2022-12-03T20:05:37.372Z,7.55
2022-12-03T20:08:08.383Z,7.47
2022-12-03T20:10:38.097Z,7.41
2022-12-03T20:13:06.746Z,7.28
2022-12-03T20:15:38.211Z,7.34
2022-12-03T20:18:07.002Z,7.16
2022-12-03T20:20:35.795Z,7.26
2022-12-03T20:23:04.324Z,7.35
2022-12-03T20:25:37.883Z,7.43
2022-12-03T20:28:06.617Z,7.38
2022-12-03T20:30:35.613Z,7.65
2022-12-03T20:33:04.090Z,7.54
2022-12-03T20:35:34.572Z,7.53
2022-12-03T20:38:03.134Z,7.64
2022-12-03T20:40:31.857Z,7.70
2022-12-03T20:43:01.839Z,7.47
2022-12-03T20:45:30.713Z,7.28
2022-12-03T20:47:59.240Z,7.42
2022-12-03T20:50:28.050Z,7.53
2022-12-03T20:53:22.735Z,7.39
2022-12-03T20:55:45.457Z,7.43
2022-12-03T20:58:15.475Z,7.37
2022-12-03T21:00:44.181Z,7.37
2022-12-03T21:03:12.687Z,7.15
2022-12-03T21:05:42.565Z,7.20
2022-12-03T21:08:11.072Z,7.28
2022-12-03T21:10:46.029Z,7.39
2022-12-03T21:13:18.056Z,7.37
2022-12-03T21:15:47.426Z,7.41
2022-12-03T21:18:18.559Z,7.40
2022-12-03T21:20:49.019Z,7.53
2022-12-03T21:23:17.633Z,7.59
2022-12-03T21:25:46.598Z,7.35
2022-12-03T21:28:16.381Z,7.33
2022-12-03T21:30:45.620Z,7.40
2022-12-03T21:33:14.031Z,7.43
2022-12-03T21:35:42.949Z,7.50
2022-12-03T21:38:11.440Z,7.41
2022-12-03T21:40:40.255Z,7.40
2022-12-03T21:43:08.789Z,7.49
2022-12-03T21:45:42.296Z,7.61
2022-12-03T21:48:10.858Z,7.59
2022-12-03T21:50:39.549Z,7.58
2022-12-03T21:53:08.796Z,7.80
2022-12-03T21:55:40.765Z,7.79
2022-12-03T21:58:10.374Z,7.76
2022-12-03T22:00:39.995Z,7.81
2022-12-03T22:03:09.941Z,7.75
2022-12-03T22:05:39.642Z,7.65
2022-12-03T22:08:08.377Z,7.81
2022-12-03T22:10:37.502Z,7.94
2022-12-03T22:13:06.754Z,7.97
2022-12-03T22:15:36.035Z,8.10
2022-12-03T22:18:04.873Z,7.90
2022-12-03T22:20:35.064Z,7.80
2022-12-03T22:23:03.612Z,7.94
2022-12-03T22:25:32.367Z,7.92
2022-12-03T22:28:00.962Z,7.65
2022-12-03T22:30:29.846Z,7.70
2022-12-03T22:32:58.269Z,7.77
2022-12-03T22:35:26.903Z,7.80
2022-12-03T22:37:56.726Z,7.88
2022-12-03T22:40:25.353Z,7.98
2022-12-03T22:42:53.783Z,7.82
2022-12-03T22:45:22.641Z,7.81
2022-12-03T22:47:51.096Z,8.01
2022-12-03T22:50:19.883Z,7.96
2022-12-03T22:52:48.288Z,7.65
2022-12-03T22:55:18.423Z,7.72
2022-12-03T22:57:46.883Z,7.77
2022-12-03T23:00:18.214Z,7.90
2022-12-03T23:02:46.816Z,7.79
2022-12-03T23:05:15.823Z,7.95
2022-12-03T23:07:44.240Z,7.84
2022-12-03T23:10:13.599Z,7.86
2022-12-03T23:12:43.366Z,7.81
2022-12-03T23:15:12.748Z,7.72
2022-12-03T23:17:41.247Z,7.80
2022-12-03T23:20:11.051Z,7.73
2022-12-03T23:22:39.517Z,7.66
2022-12-03T23:25:09.634Z,7.69
2022-12-03T23:27:38.005Z,7.65
2022-12-03T23:30:10.353Z,7.67
2022-12-03T23:32:38.863Z,7.72
2022-12-03T23:35:08.851Z,7.83
2022-12-03T23:37:37.435Z,7.85
2022-12-03T23:40:07.566Z,7.87
2022-12-03T23:42:36.230Z,7.86
2022-12-03T23:45:05.499Z,7.88
2022-12-03T23:47:35.369Z,7.75
2022-12-03T23:50:04.575Z,7.71
2022-12-03T23:52:33.011Z,7.74
2022-12-03T23:55:01.845Z,7.81
2022-12-03T23:57:30.374Z,7.79
2022-12-03T23:59:59.030Z,7.54
